createdAt,value
2023-01-17T00:01:18.696Z,8.57
2023-01-17T00:04:06.231Z,8.60
2023-01-17T00:06:52.064Z,8.57
2023-01-17T00:10:00.056Z,8.65
2023-01-17T00:12:33.501Z,8.65
2023-01-17T00:15:01.283Z,8.63
2023-01-17T00:17:29.885Z,8.63
2023-01-17T00:20:20.397Z,8.62
2023-01-17T00:23:11.028Z,8.62
2023-01-17T00:25:57.632Z,8.66
2023-01-17T00:28:25.160Z,8.71
2023-01-17T00:30:52.332Z,8.74
2023-01-17T00:33:28.450Z,8.68
2023-01-17T00:36:00.247Z,8.69
2023-01-17T00:38:28.835Z,8.64
2023-01-17T00:41:01.923Z,8.62
2023-01-17T00:43:48.609Z,8.57
2023-01-17T00:46:34.917Z,8.53
2023-01-17T00:49:27.315Z,8.47
2023-01-17T00:52:14.532Z,8.42
2023-01-17T00:55:02.629Z,8.30
2023-01-17T00:57:48.786Z,8.21
2023-01-17T01:00:35.676Z,8.14
2023-01-17T01:03:27.442Z,8.06
2023-01-17T01:06:12.846Z,7.98
2023-01-17T01:09:03.542Z,7.91
2023-01-17T01:11:48.907Z,7.90
2023-01-17T01:14:42.221Z,7.82
2023-01-17T01:17:27.776Z,7.83
2023-01-17T01:20:15.045Z,7.80
2023-01-17T01:23:03.568Z,7.75
2023-01-17T01:25:50.818Z,7.71
2023-01-17T01:28:36.077Z,7.61
2023-01-17T01:31:23.045Z,7.64
2023-01-17T01:33:50.812Z,7.70
2023-01-17T01:36:18.009Z,7.69
2023-01-17T01:38:45.835Z,7.68
2023-01-17T01:41:15.854Z,7.69
2023-01-17T01:43:46.721Z,7.64
2023-01-17T01:46:18.519Z,7.64
2023-01-17T01:48:50.391Z,7.62
2023-01-17T01:51:24.153Z,7.62
2023-01-17T01:53:54.450Z,7.63
2023-01-17T01:56:23.893Z,7.58
2023-01-17T01:58:51.495Z,7.58
2023-01-17T02:01:19.339Z,7.58
2023-01-17T02:03:47.966Z,7.60
2023-01-17T02:06:28.267Z,7.61
2023-01-17T02:08:58.085Z,7.63
2023-01-17T02:11:27.164Z,7.66
2023-01-17T02:13:56.806Z,7.70
2023-01-17T02:16:43.121Z,7.72
2023-01-17T02:19:36.165Z,7.77
2023-01-17T02:22:23.330Z,7.82
2023-01-17T02:25:15.272Z,7.87
2023-01-17T02:28:04.193Z,7.94
2023-01-17T02:30:37.746Z,7.84
2023-01-17T02:33:24.436Z,7.81
2023-01-17T02:36:04.514Z,7.81
2023-01-17T02:38:39.930Z,7.75
2023-01-17T02:41:13.472Z,7.95
2023-01-17T02:43:41.368Z,7.92
2023-01-17T02:46:10.034Z,7.92
2023-01-17T02:48:37.877Z,7.93
2023-01-17T02:51:21.094Z,7.91
2023-01-17T02:54:00.952Z,7.81
2023-01-17T02:56:44.851Z,7.72
2023-01-17T02:59:24.822Z,7.79
2023-01-17T03:02:07.190Z,7.81
2023-01-17T03:04:39.117Z,7.89
2023-01-17T03:07:11.851Z,7.90
2023-01-17T03:09:43.550Z,7.92
2023-01-17T03:12:10.532Z,7.93
2023-01-17T03:14:42.854Z,7.91
2023-01-17T03:17:11.156Z,7.94
2023-01-17T03:19:38.468Z,7.99
2023-01-17T03:22:05.978Z,8.03
2023-01-17T03:24:33.404Z,8.01
2023-01-17T03:27:00.247Z,8.03
2023-01-17T03:29:27.375Z,8.07
2023-01-17T03:31:54.414Z,8.07
2023-01-17T03:34:24.830Z,8.09
2023-01-17T03:36:51.823Z,8.15
2023-01-17T03:39:20.228Z,8.14
2023-01-17T03:41:49.645Z,8.12
2023-01-17T03:44:16.975Z,8.15
2023-01-17T03:46:44.562Z,8.17
2023-01-17T03:49:11.752Z,8.21
2023-01-17T03:51:40.029Z,8.23
2023-01-17T03:54:07.661Z,8.30
2023-01-17T03:56:34.454Z,8.27
2023-01-17T03:59:01.818Z,8.32
2023-01-17T04:01:29.125Z,8.34
2023-01-17T04:03:58.433Z,8.30
2023-01-17T04:06:25.448Z,8.27
2023-01-17T04:08:55.133Z,8.21
2023-01-17T04:11:24.478Z,8.21
2023-01-17T04:13:55.281Z,8.26
2023-01-17T04:16:26.934Z,8.28
2023-01-17T04:18:57.625Z,8.20
2023-01-17T04:21:24.529Z,8.14
2023-01-17T04:23:51.893Z,8.11
2023-01-17T04:26:20.306Z,8.05
2023-01-17T04:28:47.589Z,8.06
2023-01-17T04:31:16.549Z,8.03
2023-01-17T04:33:44.085Z,8.06
2023-01-17T04:36:11.169Z,8.05
2023-01-17T04:38:41.530Z,8.06
2023-01-17T04:41:08.431Z,8.03
2023-01-17T04:43:42.949Z,7.96
2023-01-17T04:46:11.992Z,7.88
2023-01-17T04:48:39.207Z,7.89
2023-01-17T04:51:06.725Z,7.93
2023-01-17T04:53:36.075Z,8.01
2023-01-17T04:56:04.851Z,7.99
2023-01-17T04:58:33.312Z,7.94
2023-01-17T05:01:08.941Z,7.89
2023-01-17T05:03:36.353Z,7.89
2023-01-17T05:06:03.368Z,7.90
2023-01-17T05:08:30.525Z,7.89
2023-01-17T05:10:57.417Z,7.93
2023-01-17T05:13:24.880Z,7.93
2023-01-17T05:15:52.186Z,7.87
2023-01-17T05:18:20.871Z,7.91
2023-01-17T05:20:47.887Z,7.90
2023-01-17T05:23:15.116Z,7.87
2023-01-17T05:25:44.212Z,7.90
2023-01-17T05:28:12.353Z,7.92
2023-01-17T05:30:39.487Z,7.95
2023-01-17T05:33:07.993Z,7.99
2023-01-17T05:35:37.059Z,7.92
2023-01-17T05:38:04.670Z,7.96
2023-01-17T05:40:33.218Z,7.97
2023-01-17T05:43:02.934Z,7.94
2023-01-17T05:45:33.250Z,7.91
2023-01-17T05:48:00.946Z,7.83
2023-01-17T05:50:31.087Z,7.72
2023-01-17T05:53:01.638Z,7.75
2023-01-17T05:55:29.681Z,7.77
2023-01-17T05:58:00.782Z,7.93
2023-01-17T06:00:30.966Z,7.88
2023-01-17T06:02:59.319Z,7.81
2023-01-17T06:05:30.414Z,7.75
2023-01-17T06:08:04.232Z,7.86
2023-01-17T06:10:31.343Z,7.87
2023-01-17T06:13:02.825Z,7.94
2023-01-17T06:15:29.816Z,7.93
2023-01-17T06:18:03.272Z,7.87
2023-01-17T06:20:30.300Z,7.90
2023-01-17T06:23:02.289Z,7.90
2023-01-17T06:25:36.654Z,7.94
2023-01-17T06:28:04.251Z,8.00
2023-01-17T06:30:31.148Z,7.98
2023-01-17T06:32:58.348Z,8.01
2023-01-17T06:35:25.229Z,8.05
2023-01-17T06:37:55.472Z,8.05
2023-01-17T06:40:23.938Z,8.06
2023-01-17T06:42:52.865Z,8.12
2023-01-17T06:45:20.611Z,8.16
2023-01-17T06:47:47.774Z,8.21
2023-01-17T06:50:15.455Z,8.25
2023-01-17T06:52:43.330Z,8.24
2023-01-17T06:55:10.463Z,8.19
2023-01-17T06:57:39.143Z,8.14
2023-01-17T07:00:07.840Z,8.04
2023-01-17T07:02:34.986Z,8.00
2023-01-17T07:05:01.907Z,7.99
2023-01-17T07:07:33.667Z,7.99
2023-01-17T07:10:05.002Z,8.00
2023-01-17T07:12:33.675Z,7.97
2023-01-17T07:15:05.018Z,7.98
2023-01-17T07:17:32.269Z,8.06
2023-01-17T07:19:59.223Z,8.09
2023-01-17T07:22:26.326Z,8.13
2023-01-17T07:24:58.356Z,8.13
2023-01-17T07:27:25.792Z,8.14
2023-01-17T07:29:54.216Z,8.17
2023-01-17T07:32:22.953Z,8.11
2023-01-17T07:34:51.002Z,8.13
2023-01-17T07:37:19.883Z,8.12
2023-01-17T07:39:46.965Z,8.16
2023-01-17T07:42:14.408Z,8.26
2023-01-17T07:44:44.005Z,8.25
2023-01-17T07:47:11.770Z,8.28
2023-01-17T07:49:40.274Z,8.33
2023-01-17T07:52:07.998Z,8.38
2023-01-17T07:54:35.454Z,8.34
2023-01-17T07:57:03.372Z,8.35
2023-01-17T07:59:30.354Z,8.37
2023-01-17T08:01:58.850Z,8.32
2023-01-17T08:04:26.808Z,8.31
2023-01-17T08:06:55.522Z,8.36
2023-01-17T08:09:22.512Z,8.43
2023-01-17T08:11:49.697Z,8.48
2023-01-17T08:14:16.643Z,8.51
2023-01-17T08:16:46.105Z,8.49
2023-01-17T08:19:17.167Z,8.48
2023-01-17T08:21:44.487Z,8.45
2023-01-17T08:24:18.240Z,8.48
2023-01-17T08:26:46.649Z,8.51
2023-01-17T08:29:16.406Z,8.68
2023-01-17T08:31:46.527Z,8.78
2023-01-17T08:34:14.267Z,8.90
2023-01-17T08:36:43.879Z,8.99
2023-01-17T08:39:13.072Z,8.99
2023-01-17T08:41:41.827Z,8.95
2023-01-17T08:44:08.768Z,8.96
2023-01-17T08:46:37.924Z,8.93
2023-01-17T08:49:09.392Z,8.90
2023-01-17T08:51:36.742Z,8.95
2023-01-17T08:54:06.988Z,8.99
2023-01-17T08:56:35.336Z,9.10
2023-01-17T08:59:03.653Z,9.15
2023-01-17T09:01:31.027Z,9.37
2023-01-17T09:03:58.048Z,9.50
2023-01-17T09:06:25.342Z,9.62
2023-01-17T09:08:59.619Z,9.79
2023-01-17T09:11:34.694Z,9.86
2023-01-17T09:14:03.467Z,9.98
2023-01-17T09:16:31.940Z,10.13
2023-01-17T09:19:01.235Z,10.26
2023-01-17T09:21:28.414Z,10.37
2023-01-17T09:23:56.338Z,10.53
2023-01-17T09:26:27.572Z,10.63
2023-01-17T09:28:55.142Z,10.69
2023-01-17T09:31:24.766Z,10.79
2023-01-17T09:33:54.545Z,10.96
2023-01-17T09:36:24.138Z,11.12
2023-01-17T09:38:56.117Z,11.28
2023-01-17T09:41:29.305Z,11.56
2023-01-17T09:44:03.167Z,11.80
2023-01-17T09:46:37.461Z,12.00
2023-01-17T09:49:08.638Z,11.99
2023-01-17T09:51:36.782Z,11.94
2023-01-17T09:54:04.680Z,11.78
2023-01-17T09:56:37.093Z,11.77
2023-01-17T09:59:33.041Z,12.10
2023-01-17T10:02:17.903Z,12.51
2023-01-17T10:05:01.594Z,12.68
2023-01-17T10:07:40.738Z,12.91
2023-01-17T10:10:22.111Z,12.75
2023-01-17T10:12:56.545Z,12.69
2023-01-17T10:15:54.533Z,12.71
2023-01-17T10:18:37.808Z,12.91
2023-01-17T10:21:09.610Z,12.99
2023-01-17T10:24:01.108Z,13.17
2023-01-17T10:26:28.039Z,13.27
2023-01-17T10:29:02.921Z,13.31
2023-01-17T10:31:34.319Z,13.44
2023-01-17T10:34:11.771Z,13.55
2023-01-17T10:36:41.877Z,13.51
2023-01-17T10:39:17.478Z,13.52
2023-01-17T10:41:50.798Z,13.43
2023-01-17T10:44:24.146Z,13.42
2023-01-17T10:46:56.258Z,13.37
2023-01-17T10:49:26.409Z,13.32
2023-01-17T10:52:03.796Z,13.05
2023-01-17T10:54:44.639Z,12.81
2023-01-17T10:57:14.945Z,12.55
2023-01-17T10:59:42.129Z,12.67
2023-01-17T11:02:19.850Z,12.73
2023-01-17T11:04:52.125Z,12.89
2023-01-17T11:07:23.257Z,13.02
2023-01-17T11:09:53.218Z,12.92
2023-01-17T11:12:27.051Z,12.93
2023-01-17T11:15:22.798Z,12.90
2023-01-17T11:17:53.269Z,12.80
2023-01-17T11:20:38.314Z,12.56
2023-01-17T11:23:16.535Z,12.36
2023-01-17T11:25:57.040Z,12.34
2023-01-17T11:28:30.306Z,12.37
2023-01-17T11:31:00.459Z,12.35
2023-01-17T11:33:45.106Z,12.25
2023-01-17T11:36:22.096Z,12.21
2023-01-17T11:39:04.548Z,12.09
2023-01-17T11:41:36.633Z,12.12
2023-01-17T11:44:20.273Z,12.13
2023-01-17T11:46:49.168Z,12.15
2023-01-17T11:49:24.249Z,12.10
2023-01-17T11:51:56.146Z,12.04
2023-01-17T11:54:30.090Z,12.12
2023-01-17T11:56:57.965Z,12.07
2023-01-17T11:59:30.241Z,12.02
2023-01-17T12:02:31.970Z,12.01
2023-01-17T12:05:15.438Z,12.02
2023-01-17T12:07:51.370Z,12.04
2023-01-17T12:10:25.718Z,12.15
2023-01-17T12:13:17.456Z,12.21
2023-01-17T12:15:57.792Z,12.34
2023-01-17T12:18:36.068Z,12.48
2023-01-17T12:21:15.724Z,12.53
2023-01-17T12:23:58.569Z,12.46
2023-01-17T12:26:37.112Z,12.45
2023-01-17T12:29:36.465Z,12.53
2023-01-17T12:32:19.538Z,12.57
2023-01-17T12:34:53.742Z,12.71
2023-01-17T12:37:26.461Z,12.87
2023-01-17T12:40:00.525Z,12.90
2023-01-17T12:42:32.505Z,12.87
2023-01-17T12:45:05.496Z,12.80
2023-01-17T12:47:37.822Z,12.74
2023-01-17T12:50:15.452Z,12.67
2023-01-17T12:52:51.805Z,12.64
2023-01-17T12:55:27.329Z,12.64
2023-01-17T12:57:58.624Z,12.58
2023-01-17T13:00:31.958Z,12.56
2023-01-17T13:03:05.802Z,12.52
2023-01-17T13:05:38.260Z,12.44
2023-01-17T13:08:17.144Z,12.40
2023-01-17T13:10:51.314Z,12.33
2023-01-17T13:13:23.986Z,12.34
2023-01-17T13:15:55.063Z,12.32
2023-01-17T13:18:25.978Z,12.28
2023-01-17T13:21:20.825Z,12.14
2023-01-17T13:24:09.877Z,12.20
2023-01-17T13:26:56.490Z,12.33
2023-01-17T13:29:34.565Z,12.42
2023-01-17T13:32:17.181Z,12.50
2023-01-17T13:35:15.646Z,12.48
2023-01-17T13:38:08.883Z,12.40
2023-01-17T13:40:45.384Z,12.35
2023-01-17T13:43:18.316Z,12.36
2023-01-17T13:45:52.995Z,12.34
2023-01-17T13:48:31.406Z,12.35
2023-01-17T13:51:02.695Z,12.41
2023-01-17T13:53:59.977Z,12.50
2023-01-17T13:56:33.244Z,12.50
2023-01-17T13:59:07.330Z,12.51
2023-01-17T14:01:54.126Z,12.52
2023-01-17T14:04:25.094Z,12.56
2023-01-17T14:06:55.677Z,12.66
2023-01-17T14:09:27.551Z,12.61
2023-01-17T14:12:27.972Z,12.54
2023-01-17T14:15:01.328Z,12.48
2023-01-17T14:17:49.881Z,12.37
2023-01-17T14:20:53.550Z,12.30
2023-01-17T14:23:46.321Z,12.26
2023-01-17T14:26:52.037Z,12.26
2023-01-17T14:29:53.731Z,12.18
2023-01-17T14:32:24.376Z,12.14
2023-01-17T14:34:53.079Z,12.13
2023-01-17T14:37:29.455Z,12.07
2023-01-17T14:39:56.575Z,12.03
2023-01-17T14:42:26.450Z,11.99
2023-01-17T14:45:02.185Z,11.97
2023-01-17T14:47:35.688Z,12.00
2023-01-17T14:50:21.564Z,11.94
2023-01-17T14:52:49.182Z,11.94
2023-01-17T14:55:18.770Z,11.91
2023-01-17T14:57:55.883Z,11.91
2023-01-17T15:00:26.465Z,11.83
2023-01-17T15:02:57.109Z,11.84
2023-01-17T15:05:27.002Z,11.77
2023-01-17T15:07:58.210Z,11.81
2023-01-17T15:10:28.325Z,11.78
2023-01-17T15:13:06.794Z,11.76
2023-01-17T15:15:38.326Z,11.75
2023-01-17T15:18:22.088Z,11.75
2023-01-17T15:20:54.790Z,11.68
2023-01-17T15:23:26.999Z,11.68
2023-01-17T15:25:54.356Z,11.65
2023-01-17T15:28:21.607Z,11.63
2023-01-17T15:31:17.072Z,11.60
2023-01-17T15:33:56.744Z,11.55
2023-01-17T15:36:28.117Z,11.50
2023-01-17T15:38:59.819Z,11.46
2023-01-17T15:41:32.640Z,11.37
2023-01-17T15:44:00.385Z,11.36
2023-01-17T15:46:33.937Z,11.34
2023-01-17T15:49:17.752Z,11.30
2023-01-17T15:51:48.673Z,11.19
2023-01-17T15:54:41.559Z,11.18
2023-01-17T15:57:25.461Z,11.12
2023-01-17T15:59:55.856Z,11.08
2023-01-17T16:02:27.297Z,11.07
2023-01-17T16:04:56.437Z,11.04
2023-01-17T16:07:31.349Z,11.01
2023-01-17T16:10:08.558Z,10.97
2023-01-17T16:12:37.808Z,10.92
2023-01-17T16:15:12.934Z,10.91
2023-01-17T16:17:42.323Z,10.84
2023-01-17T16:20:16.685Z,10.85
2023-01-17T16:22:46.614Z,10.82
2023-01-17T16:25:15.131Z,10.77
2023-01-17T16:27:43.219Z,10.71
2023-01-17T16:30:17.946Z,10.65
2023-01-17T16:32:48.888Z,10.71
2023-01-17T16:35:25.585Z,10.65
2023-01-17T16:37:54.278Z,10.60
2023-01-17T16:40:23.944Z,10.55
2023-01-17T16:42:51.487Z,10.60
2023-01-17T16:45:26.145Z,10.56
2023-01-17T16:47:59.093Z,10.54
2023-01-17T16:50:29.479Z,10.61
2023-01-17T16:52:57.074Z,10.57
2023-01-17T16:55:25.491Z,10.54
2023-01-17T16:57:54.145Z,10.57
2023-01-17T17:00:22.741Z,10.54
2023-01-17T17:02:49.922Z,10.48
2023-01-17T17:05:17.443Z,10.46
2023-01-17T17:07:50.139Z,10.44
2023-01-17T17:10:20.636Z,10.46
2023-01-17T17:12:47.579Z,10.33
2023-01-17T17:15:14.834Z,10.31
2023-01-17T17:17:43.349Z,10.24
2023-01-17T17:20:12.966Z,10.20
2023-01-17T17:22:40.620Z,10.19
2023-01-17T17:25:10.391Z,10.17
2023-01-17T17:27:37.306Z,10.19
2023-01-17T17:30:05.201Z,10.12
2023-01-17T17:32:32.362Z,10.05
2023-01-17T17:35:00.531Z,10.06
2023-01-17T17:37:30.400Z,10.05
2023-01-17T17:39:58.909Z,10.05
2023-01-17T17:42:29.492Z,10.10
2023-01-17T17:44:56.737Z,10.12
2023-01-17T17:47:26.551Z,10.17
2023-01-17T17:49:54.012Z,10.17
2023-01-17T17:52:20.927Z,10.19
2023-01-17T17:54:48.329Z,10.31
2023-01-17T17:57:15.240Z,10.42
2023-01-17T17:59:43.799Z,10.51
2023-01-17T18:02:11.147Z,10.61
2023-01-17T18:04:39.899Z,10.62
2023-01-17T18:07:06.890Z,10.66
2023-01-17T18:09:34.162Z,10.68
2023-01-17T18:12:04.546Z,10.65
2023-01-17T18:14:33.105Z,10.60
2023-01-17T18:17:04.054Z,10.62
2023-01-17T18:19:33.947Z,10.62
2023-01-17T18:22:03.719Z,10.60
2023-01-17T18:24:34.136Z,10.62
2023-01-17T18:27:01.171Z,10.60
2023-01-17T18:29:28.840Z,10.62
2023-01-17T18:31:56.097Z,10.67
2023-01-17T18:34:29.153Z,10.73
2023-01-17T18:37:01.567Z,10.79
2023-01-17T18:39:30.149Z,10.82
2023-01-17T18:41:59.411Z,10.99
2023-01-17T18:44:27.572Z,11.16
2023-01-17T18:46:55.013Z,11.42
2023-01-17T18:49:24.767Z,11.60
2023-01-17T18:51:54.396Z,11.82
2023-01-17T18:54:22.108Z,11.98
2023-01-17T18:56:51.215Z,12.16
2023-01-17T18:59:25.888Z,12.31
2023-01-17T19:01:53.111Z,12.46
2023-01-17T19:04:21.528Z,12.57
2023-01-17T19:06:52.535Z,12.61
2023-01-17T19:09:22.265Z,12.71
2023-01-17T19:11:50.057Z,12.76
2023-01-17T19:14:21.502Z,12.87
2023-01-17T19:16:52.173Z,12.88
2023-01-17T19:19:20.566Z,12.93
2023-01-17T19:21:52.200Z,12.92
2023-01-17T19:24:19.169Z,13.04
2023-01-17T19:26:47.770Z,13.11
2023-01-17T19:29:14.682Z,13.11
2023-01-17T19:31:43.167Z,13.16
2023-01-17T19:34:18.878Z,13.18
2023-01-17T19:36:46.358Z,13.18
2023-01-17T19:39:14.686Z,13.21
2023-01-17T19:41:46.276Z,13.27
2023-01-17T19:44:14.679Z,13.27
2023-01-17T19:46:44.438Z,13.27
2023-01-17T19:49:16.322Z,13.28
2023-01-17T19:51:43.674Z,13.28
2023-01-17T19:54:10.671Z,13.26
2023-01-17T19:56:39.157Z,13.33
2023-01-17T19:59:08.903Z,13.32
2023-01-17T20:01:37.478Z,13.32
2023-01-17T20:04:05.016Z,13.31
2023-01-17T20:06:33.905Z,13.28
2023-01-17T20:09:01.137Z,13.33
2023-01-17T20:11:28.898Z,13.36
2023-01-17T20:14:01.759Z,13.34
2023-01-17T20:16:30.971Z,13.32
2023-01-17T20:18:59.043Z,13.27
2023-01-17T20:21:29.154Z,13.31
2023-01-17T20:23:58.117Z,13.32
2023-01-17T20:26:35.391Z,13.32
2023-01-17T20:29:06.917Z,13.34
2023-01-17T20:31:38.074Z,13.34
2023-01-17T20:34:06.306Z,13.29
2023-01-17T20:36:33.983Z,13.30
2023-01-17T20:39:03.299Z,13.30
2023-01-17T20:41:32.491Z,13.27
2023-01-17T20:44:00.685Z,13.27
2023-01-17T20:46:32.124Z,13.28
2023-01-17T20:49:01.200Z,13.26
2023-01-17T20:51:29.644Z,13.21
2023-01-17T20:53:58.369Z,13.21
2023-01-17T20:56:26.724Z,13.24
2023-01-17T20:58:55.197Z,13.20
2023-01-17T21:01:23.163Z,13.17
2023-01-17T21:03:53.855Z,13.11
2023-01-17T21:06:23.039Z,13.10
2023-01-17T21:08:51.047Z,13.11
2023-01-17T21:11:20.181Z,13.08
2023-01-17T21:13:48.833Z,13.07
2023-01-17T21:16:17.795Z,13.06
2023-01-17T21:18:47.548Z,12.94
2023-01-17T21:21:22.078Z,12.86
2023-01-17T21:23:50.560Z,12.78
2023-01-17T21:26:19.169Z,12.70
2023-01-17T21:28:47.536Z,12.60
2023-01-17T21:31:23.331Z,12.53
2023-01-17T21:33:52.738Z,12.52
2023-01-17T21:36:23.553Z,12.54
2023-01-17T21:38:52.490Z,12.49
2023-01-17T21:41:20.741Z,12.40
2023-01-17T21:43:48.013Z,12.36
2023-01-17T21:46:15.266Z,12.26
2023-01-17T21:48:44.365Z,12.25
2023-01-17T21:51:11.609Z,12.18
2023-01-17T21:53:40.242Z,12.10
2023-01-17T21:56:28.861Z,12.03
2023-01-17T21:58:57.776Z,12.04
2023-01-17T22:01:26.835Z,11.93
2023-01-17T22:04:02.839Z,11.94
2023-01-17T22:06:32.581Z,11.93
2023-01-17T22:09:00.855Z,11.91
2023-01-17T22:11:30.431Z,11.92
2023-01-17T22:13:59.172Z,11.83
2023-01-17T22:16:29.369Z,11.75
2023-01-17T22:18:56.435Z,11.73
2023-01-17T22:21:34.329Z,11.58
2023-01-17T22:24:11.546Z,11.63
2023-01-17T22:26:40.999Z,11.61
2023-01-17T22:29:10.560Z,11.56
2023-01-17T22:31:37.821Z,11.58
2023-01-17T22:34:05.322Z,11.56
2023-01-17T22:36:33.354Z,11.61
2023-01-17T22:39:02.244Z,11.58
2023-01-17T22:41:31.195Z,11.58
2023-01-17T22:43:59.826Z,11.59
2023-01-17T22:46:29.210Z,11.55
2023-01-17T22:48:56.193Z,11.55
2023-01-17T22:51:25.451Z,11.53
2023-01-17T22:53:53.697Z,11.54
2023-01-17T22:56:23.697Z,11.51
2023-01-17T22:58:50.589Z,11.53
2023-01-17T23:01:19.859Z,11.55
2023-01-17T23:03:51.778Z,11.56
2023-01-17T23:06:21.278Z,11.54
2023-01-17T23:08:50.399Z,11.52
2023-01-17T23:11:42.342Z,11.55
2023-01-17T23:14:14.196Z,11.51
2023-01-17T23:17:01.726Z,11.46
2023-01-17T23:19:36.822Z,11.30
2023-01-17T23:22:21.017Z,11.37
2023-01-17T23:24:51.094Z,11.43
2023-01-17T23:27:41.617Z,11.35
2023-01-17T23:30:12.185Z,11.24
2023-01-17T23:32:40.766Z,11.25
2023-01-17T23:35:11.053Z,11.17
2023-01-17T23:38:13.261Z,10.96
2023-01-17T23:40:40.744Z,11.06
2023-01-17T23:43:30.957Z,11.08
2023-01-17T23:45:57.932Z,11.13
2023-01-17T23:48:28.427Z,11.17
2023-01-17T23:50:58.214Z,11.24
2023-01-17T23:53:29.936Z,11.26
2023-01-17T23:55:57.301Z,11.27
2023-01-17T23:58:29.698Z,11.24
